Boulevard, California
Current Conditions -  °F | °C
As of 7:56 AM on Thursday 18 Dec 2014 (Local Time) from KNJK Reporting Station
Few Clouds Few Clouds  
Wind Chill: 46°   Ceiling: Unl
Heat Index: 48°   Visibility: 9mi
Dew Point: 44°   Wind: 5mph
Humidity: 86%   Direction: 270°W
Pressure: 30.15"   Gusts: NA
Location:  32.66°N, 116.28°W
Report Text: KNJK 181556Z 27004KT 9SM FEW060 FEW100 09/07 A3015 RMK AO2 SLP223 T00890067
Loading
Personal Weather Stations






























Interactive Weather Map New forecast layout! Learn more

10-Day Weather Forecast

Advertisements
Track Severe Weather on mobile